PWSweather.com
Personal Weather Stations
Station Observations
NIGHT1
EastleighGB

EastleighGB

Lat: 50.966307, Lon: -1.380982

Elevation: 78

Station Type: Davis VP2 with daytime FARS

Latest ConditionsUpdated 10:45:00 AM GMT Thursday, Nov 23, 2017
Currently Today's Max Today's Min Today's Average
Temperature 50.6°F10.3°C 58.9°F14.9°C 46.8°F8.2°C 53.2°F11.8°C
Dew Point -47.1°F-43.9°C -42.0°F-41.1°C -49.4°F-45.2°C -45.5°F-43.1°C
Winds 5.9 mph SW9.5 kmh SW 13.0 mph S20.9 kmh S - 7.0 mph 11.3 kmh
Wind Gusts 16.0 mph25.7 kmh 34.0 mph54.7 kmh - -
Humidity 1% 1% 1% 1%
Pressure 29.51 in999.3 mb 29.51 in999.3 mb 29.11 in985.8 mb -
Precipitation - 0.18 in4.6 mm - -
Hour Temp Dew Point Humidity Winds Wind Gusts Pressure Precip Precip Rate Daily Precip Total
10:45 AM 50.6°F10.3°C -47.1°F-43.9°C 1% 5.9 mph SW9.5 kmh SW 16.0 mph25.7 kmh 29.51 in999.3 mb 0.00 in0.0 mm 0.00 in0.0 mm 0.18 in4.6 mm
10:40 AM 50.3°F10.2°C -47.3°F-44.1°C 1% 5.7 mph SW9.2 kmh SW 13.0 mph20.9 kmh 29.50 in999.0 mb 0.00 in0.0 mm 0.00 in0.0 mm 0.18 in4.6 mm
10:35 AM 50.3°F10.2°C -47.3°F-44.1°C 1% 5.7 mph WSW9.2 kmh WSW 13.0 mph20.9 kmh 29.50 in999.0 mb 0.00 in0.0 mm 0.00 in0.0 mm 0.18 in4.6 mm
10:30 AM 49.9°F9.9°C -47.5°F-44.2°C 1% 5.9 mph WSW9.5 kmh WSW 13.0 mph20.9 kmh 29.50 in999.0 mb 0.00 in0.0 mm 0.00 in0.0 mm 0.18 in4.6 mm
10:25 AM 49.7°F9.8°C -47.6°F-44.2°C 1% 6.0 mph WSW9.7 kmh WSW 16.0 mph25.7 kmh 29.50 in999.0 mb 0.00 in0.0 mm 0.00 in0.0 mm 0.18 in4.6 mm
10:20 AM 49.4°F9.7°C -47.8°F-44.3°C 1% 5.8 mph WSW9.3 kmh WSW 16.0 mph25.7 kmh 29.49 in998.6 mb 0.00 in0.0 mm 0.00 in0.0 mm 0.18 in4.6 mm
10:15 AM 49.2°F9.6°C -48.0°F-44.4°C 1% 5.4 mph WSW8.7 kmh WSW 14.0 mph22.5 kmh 29.49 in998.6 mb 0.00 in0.0 mm 0.00 in0.0 mm 0.18 in4.6 mm
10:10 AM 49.2°F9.6°C -48.0°F-44.4°C 1% 5.5 mph SW8.9 kmh SW 14.0 mph22.5 kmh 29.49 in998.6 mb 0.00 in0.0 mm 0.00 in0.0 mm 0.18 in4.6 mm
10:05 AM 49.1°F9.5°C -48.0°F-44.4°C 1% 5.5 mph SW8.9 kmh SW 11.0 mph17.7 kmh 29.48 in998.3 mb 0.00 in0.0 mm 0.00 in0.0 mm 0.18 in4.6 mm
10:00 AM 48.9°F9.4°C -48.1°F-44.5°C 1% 5.1 mph SW8.2 kmh SW 11.0 mph17.7 kmh 29.48 in998.3 mb 0.00 in0.0 mm 0.00 in0.0 mm 0.18 in4.6 mm
09:55 AM 48.6°F9.2°C -48.3°F-44.6°C 1% 5.4 mph SW8.7 kmh SW 11.0 mph17.7 kmh 29.48 in998.3 mb 0.00 in0.0 mm 0.00 in0.0 mm 0.18 in4.6 mm
09:50 AM 48.6°F9.2°C -48.3°F-44.6°C 1% 5.7 mph SW9.2 kmh SW 12.0 mph19.3 kmh 29.48 in998.3 mb 0.00 in0.0 mm 0.00 in0.0 mm 0.18 in4.6 mm
09:45 AM 48.3°F9.1°C -48.5°F-44.7°C 1% 5.4 mph SW8.7 kmh SW 14.0 mph22.5 kmh 29.47 in998.0 mb 0.00 in0.0 mm 0.00 in0.0 mm 0.18 in4.6 mm
09:40 AM 48.3°F9.1°C -48.5°F-44.7°C 1% 5.1 mph WSW8.2 kmh WSW 14.0 mph22.5 kmh 29.47 in998.0 mb 0.00 in0.0 mm 0.00 in0.0 mm 0.18 in4.6 mm
09:35 AM 48.3°F9.1°C -48.5°F-44.7°C 1% 5.0 mph WSW8.0 kmh WSW 11.0 mph17.7 kmh 29.47 in998.0 mb 0.00 in0.0 mm 0.00 in0.0 mm 0.18 in4.6 mm
09:30 AM 48.2°F9.0°C -48.6°F-44.8°C 1% 5.0 mph SW8.0 kmh SW 11.0 mph17.7 kmh 29.46 in997.6 mb 0.00 in0.0 mm 0.00 in0.0 mm 0.18 in4.6 mm
09:25 AM 48.3°F9.1°C -48.5°F-44.7°C 1% 4.7 mph WSW7.6 kmh WSW 13.0 mph20.9 kmh 29.46 in997.6 mb 0.00 in0.0 mm 0.00 in0.0 mm 0.18 in4.6 mm
09:20 AM 47.8°F8.8°C -48.8°F-44.9°C 1% 4.7 mph WSW7.6 kmh WSW 13.0 mph20.9 kmh 29.45 in997.3 mb 0.00 in0.0 mm 0.00 in0.0 mm 0.18 in4.6 mm
09:15 AM 47.9°F8.8°C -48.8°F-44.9°C 1% 5.0 mph WSW8.0 kmh WSW 12.0 mph19.3 kmh 29.45 in997.3 mb 0.00 in0.0 mm 0.00 in0.0 mm 0.18 in4.6 mm
09:10 AM 47.8°F8.8°C -48.8°F-44.9°C 1% 5.0 mph WSW8.0 kmh WSW 11.0 mph17.7 kmh 29.45 in997.3 mb 0.00 in0.0 mm 0.00 in0.0 mm 0.18 in4.6 mm
09:05 AM 47.7°F8.7°C -48.9°F-44.9°C 1% 4.7 mph WSW7.6 kmh WSW 10.0 mph16.1 kmh 29.44 in997.0 mb 0.00 in0.0 mm 0.00 in0.0 mm 0.18 in4.6 mm
09:00 AM 47.6°F8.7°C -48.9°F-44.9°C 1% 3.9 mph WSW6.3 kmh WSW 11.0 mph17.7 kmh 29.44 in997.0 mb 0.00 in0.0 mm 0.00 in0.0 mm 0.18 in4.6 mm
08:55 AM 47.4°F8.6°C -49.1°F-45.1°C 1% 3.5 mph WSW5.6 kmh WSW 11.0 mph17.7 kmh 29.43 in996.6 mb 0.00 in0.0 mm 0.00 in0.0 mm 0.18 in4.6 mm
08:50 AM 47.3°F8.5°C -49.1°F-45.1°C 1% 3.8 mph WSW6.1 kmh WSW 10.0 mph16.1 kmh 29.43 in996.6 mb 0.00 in0.0 mm 0.00 in0.0 mm 0.18 in4.6 mm
08:45 AM 47.1°F8.4°C -49.3°F-45.2°C 1% 4.0 mph WSW6.4 kmh WSW 10.0 mph16.1 kmh 29.43 in996.6 mb 0.00 in0.0 mm 0.00 in0.0 mm 0.18 in4.6 mm
08:40 AM 46.9°F8.3°C -49.4°F-45.2°C 1% 4.0 mph WSW6.4 kmh WSW 11.0 mph17.7 kmh 29.42 in996.3 mb 0.00 in0.0 mm 0.00 in0.0 mm 0.18 in4.6 mm
08:35 AM 46.8°F8.2°C -49.4°F-45.2°C 1% 4.0 mph WSW6.4 kmh WSW 11.0 mph17.7 kmh 29.41 in995.9 mb 0.00 in0.0 mm 0.00 in0.0 mm 0.18 in4.6 mm
08:30 AM 46.9°F8.3°C -49.4°F-45.2°C 1% 4.0 mph WSW6.4 kmh WSW 10.0 mph16.1 kmh 29.41 in995.9 mb 0.00 in0.0 mm 0.00 in0.0 mm 0.18 in4.6 mm
08:25 AM 46.9°F8.3°C -49.4°F-45.2°C 1% 4.4 mph WSW7.1 kmh WSW 9.0 mph14.5 kmh 29.40 in995.6 mb 0.00 in0.0 mm 0.00 in0.0 mm 0.18 in4.6 mm
08:20 AM 47.1°F8.4°C -49.3°F-45.2°C 1% 5.0 mph W8.0 kmh W 10.0 mph16.1 kmh 29.40 in995.6 mb 0.01 in0.3 mm 0.00 in0.0 mm 0.18 in4.6 mm
08:15 AM 47.2°F8.4°C -49.2°F-45.1°C 1% 5.1 mph W8.2 kmh W 11.0 mph17.7 kmh 29.39 in995.3 mb 0.01 in0.3 mm 0.00 in0.0 mm 0.18 in4.6 mm
08:10 AM 47.3°F8.5°C -49.1°F-45.1°C 1% 4.5 mph WSW7.2 kmh WSW 11.0 mph17.7 kmh 29.39 in995.3 mb 0.01 in0.3 mm 0.00 in0.0 mm 0.18 in4.6 mm
08:05 AM 47.4°F8.6°C -49.1°F-45.1°C 1% 4.6 mph W7.4 kmh W 11.0 mph17.7 kmh 29.39 in995.3 mb 0.01 in0.3 mm 0.00 in0.0 mm 0.18 in4.6 mm
08:00 AM 47.6°F8.7°C -48.9°F-44.9°C 1% 5.6 mph W9.0 kmh W 11.0 mph17.7 kmh 29.38 in994.9 mb 0.01 in0.3 mm 0.00 in0.0 mm 0.18 in4.6 mm
07:55 AM 47.7°F8.7°C -48.9°F-44.9°C 1% 5.9 mph W9.5 kmh W 16.0 mph25.7 kmh 29.38 in994.9 mb 0.01 in0.3 mm 0.00 in0.0 mm 0.18 in4.6 mm
07:50 AM 47.8°F8.8°C -48.8°F-44.9°C 1% 5.6 mph W9.0 kmh W 16.0 mph25.7 kmh 29.37 in994.6 mb 0.01 in0.3 mm 0.00 in0.0 mm 0.18 in4.6 mm
07:45 AM 47.9°F8.8°C -48.8°F-44.9°C 1% 6.2 mph W10.0 kmh W 13.0 mph20.9 kmh 29.36 in994.2 mb 0.01 in0.3 mm 0.00 in0.0 mm 0.18 in4.6 mm
07:40 AM 48.2°F9.0°C -48.6°F-44.8°C 1% 7.5 mph W12.1 kmh W 15.0 mph24.1 kmh 29.36 in994.2 mb 0.01 in0.3 mm 0.00 in0.0 mm 0.18 in4.6 mm
07:35 AM 48.2°F9.0°C -48.6°F-44.8°C 1% 8.7 mph W14.0 kmh W 15.0 mph24.1 kmh 29.36 in994.2 mb 0.01 in0.3 mm 0.00 in0.0 mm 0.18 in4.6 mm
07:30 AM 48.5°F9.2°C -48.4°F-44.7°C 1% 9.3 mph WNW15.0 kmh WNW 21.0 mph33.8 kmh 29.36 in994.2 mb 0.01 in0.3 mm 0.00 in0.0 mm 0.18 in4.6 mm
07:25 AM 48.6°F9.2°C -48.3°F-44.6°C 1% 8.8 mph WNW14.2 kmh WNW 21.0 mph33.8 kmh 29.35 in993.9 mb 0.02 in0.5 mm 0.12 in3.0 mm 0.18 in4.6 mm
07:20 AM 49.2°F9.6°C -48.0°F-44.4°C 1% 8.4 mph WNW13.5 kmh WNW 20.0 mph32.2 kmh 29.35 in993.9 mb 0.01 in0.3 mm 0.00 in0.0 mm 0.17 in4.3 mm
07:15 AM 49.6°F9.8°C -47.7°F-44.3°C 1% 8.0 mph WNW12.9 kmh WNW 19.0 mph30.6 kmh 29.34 in993.6 mb 0.01 in0.3 mm 0.00 in0.0 mm 0.17 in4.3 mm
07:10 AM 49.6°F9.8°C -47.7°F-44.3°C 1% 8.1 mph WNW13.0 kmh WNW 16.0 mph25.7 kmh 29.33 in993.2 mb 0.01 in0.3 mm 0.00 in0.0 mm 0.17 in4.3 mm
07:05 AM 49.7°F9.8°C -47.6°F-44.2°C 1% 8.8 mph W14.2 kmh W 16.0 mph25.7 kmh 29.32 in992.9 mb 0.01 in0.3 mm 0.00 in0.0 mm 0.17 in4.3 mm
07:00 AM 49.8°F9.9°C -47.6°F-44.2°C 1% 9.0 mph W14.5 kmh W 18.0 mph29.0 kmh 29.32 in992.9 mb 0.01 in0.3 mm 0.00 in0.0 mm 0.17 in4.3 mm
06:55 AM 50.1°F10.1°C -47.4°F-44.1°C 1% 9.3 mph W15.0 kmh W 19.0 mph30.6 kmh 29.32 in992.9 mb 0.01 in0.3 mm 0.00 in0.0 mm 0.17 in4.3 mm
06:50 AM 50.4°F10.2°C -47.2°F-44.0°C 1% 10.1 mph WNW16.3 kmh WNW 19.0 mph30.6 kmh 29.31 in992.6 mb 0.01 in0.3 mm 0.00 in0.0 mm 0.17 in4.3 mm
06:45 AM 50.7°F10.4°C -47.0°F-43.9°C 1% 10.8 mph WNW17.4 kmh WNW 18.0 mph29.0 kmh 29.30 in992.2 mb 0.01 in0.3 mm 0.00 in0.0 mm 0.17 in4.3 mm
06:40 AM 51.0°F10.6°C -46.8°F-43.8°C 1% 11.2 mph WNW18.0 kmh WNW 18.0 mph29.0 kmh 29.29 in991.9 mb 0.01 in0.3 mm 0.00 in0.0 mm 0.17 in4.3 mm
06:35 AM 51.8°F11.0°C -46.3°F-43.5°C 1% 10.1 mph W16.3 kmh W 24.0 mph38.6 kmh 29.29 in991.9 mb 0.01 in0.3 mm 0.00 in0.0 mm 0.17 in4.3 mm
06:30 AM 52.5°F11.4°C -45.9°F-43.3°C 1% 7.9 mph W12.7 kmh W 24.0 mph38.6 kmh 29.27 in991.2 mb 0.01 in0.3 mm 0.12 in3.0 mm 0.17 in4.3 mm
06:25 AM 54.9°F12.7°C -44.4°F-42.4°C 1% 6.4 mph WSW10.3 kmh WSW 21.0 mph33.8 kmh 29.27 in991.2 mb 0.00 in0.0 mm 0.00 in0.0 mm 0.17 in4.3 mm
06:20 AM 55.1°F12.8°C -44.3°F-42.4°C 1% 5.9 mph WSW9.5 kmh WSW 14.0 mph22.5 kmh 29.25 in990.5 mb 0.00 in0.0 mm 0.00 in0.0 mm 0.17 in4.3 mm
06:15 AM 55.1°F12.8°C -44.3°F-42.4°C 1% 5.6 mph WSW9.0 kmh WSW 14.0 mph22.5 kmh 29.25 in990.5 mb 0.00 in0.0 mm 0.00 in0.0 mm 0.17 in4.3 mm
06:10 AM 55.0°F12.8°C -44.4°F-42.4°C 1% 5.5 mph WSW8.9 kmh WSW 15.0 mph24.1 kmh 29.24 in990.2 mb 0.00 in0.0 mm 0.00 in0.0 mm 0.17 in4.3 mm
06:05 AM 54.9°F12.7°C -44.4°F-42.4°C 1% 6.1 mph SW9.8 kmh SW 15.0 mph24.1 kmh 29.24 in990.2 mb 0.00 in0.0 mm 0.00 in0.0 mm 0.17 in4.3 mm
06:00 AM 54.9°F12.7°C -44.4°F-42.4°C 1% 6.8 mph SW10.9 kmh SW 13.0 mph20.9 kmh 29.23 in989.8 mb 0.00 in0.0 mm 0.00 in0.0 mm 0.17 in4.3 mm
05:55 AM 55.0°F12.8°C -44.4°F-42.4°C 1% 6.8 mph WSW10.9 kmh WSW 16.0 mph25.7 kmh 29.23 in989.8 mb 0.00 in0.0 mm 0.00 in0.0 mm 0.17 in4.3 mm
05:50 AM 55.0°F12.8°C -44.4°F-42.4°C 1% 7.1 mph SW11.4 kmh SW 16.0 mph25.7 kmh 29.23 in989.8 mb 0.00 in0.0 mm 0.00 in0.0 mm 0.17 in4.3 mm
05:45 AM 55.1°F12.8°C -44.3°F-42.4°C 1% 7.3 mph SW11.7 kmh SW 15.0 mph24.1 kmh 29.22 in989.5 mb 0.00 in0.0 mm 0.00 in0.0 mm 0.17 in4.3 mm
05:40 AM 55.1°F12.8°C -44.3°F-42.4°C 1% 6.4 mph WSW10.3 kmh WSW 17.0 mph27.4 kmh 29.21 in989.2 mb 0.00 in0.0 mm 0.00 in0.0 mm 0.17 in4.3 mm
05:35 AM 55.0°F12.8°C -44.4°F-42.4°C 1% 5.2 mph SW8.4 kmh SW 17.0 mph27.4 kmh 29.21 in989.2 mb 0.00 in0.0 mm 0.00 in0.0 mm 0.17 in4.3 mm
05:30 AM 54.9°F12.7°C -44.4°F-42.4°C 1% 4.4 mph SW7.1 kmh SW 12.0 mph19.3 kmh 29.20 in988.8 mb 0.00 in0.0 mm 0.00 in0.0 mm 0.17 in4.3 mm
05:25 AM 54.8°F12.7°C -44.5°F-42.5°C 1% 4.2 mph SW6.8 kmh SW 9.0 mph14.5 kmh 29.20 in988.8 mb 0.00 in0.0 mm 0.00 in0.0 mm 0.17 in4.3 mm
05:20 AM 54.8°F12.7°C -44.5°F-42.5°C 1% 4.2 mph SW6.8 kmh SW 10.0 mph16.1 kmh 29.20 in988.8 mb 0.00 in0.0 mm 0.00 in0.0 mm 0.17 in4.3 mm
05:15 AM 54.8°F12.7°C -44.5°F-42.5°C 1% 4.5 mph SW7.2 kmh SW 12.0 mph19.3 kmh 29.20 in988.8 mb 0.00 in0.0 mm 0.00 in0.0 mm 0.17 in4.3 mm
05:10 AM 54.9°F12.7°C -44.4°F-42.4°C 1% 4.9 mph SW7.9 kmh SW 12.0 mph19.3 kmh 29.20 in988.8 mb 0.00 in0.0 mm 0.00 in0.0 mm 0.17 in4.3 mm
05:05 AM 54.8°F12.7°C -44.5°F-42.5°C 1% 5.0 mph SW8.0 kmh SW 12.0 mph19.3 kmh 29.20 in988.8 mb 0.00 in0.0 mm 0.00 in0.0 mm 0.17 in4.3 mm
05:00 AM 54.7°F12.6°C -44.6°F-42.6°C 1% 5.0 mph SW8.0 kmh SW 11.0 mph17.7 kmh 29.19 in988.5 mb 0.00 in0.0 mm 0.00 in0.0 mm 0.17 in4.3 mm
04:55 AM 54.7°F12.6°C -44.6°F-42.6°C 1% 5.0 mph SW8.0 kmh SW 10.0 mph16.1 kmh 29.19 in988.5 mb 0.00 in0.0 mm 0.00 in0.0 mm 0.17 in4.3 mm
04:50 AM 54.6°F12.6°C -44.6°F-42.6°C 1% 5.0 mph SW8.0 kmh SW 11.0 mph17.7 kmh 29.19 in988.5 mb 0.00 in0.0 mm 0.00 in0.0 mm 0.17 in4.3 mm
04:45 AM 54.4°F12.4°C -44.7°F-42.6°C 1% 5.0 mph SW8.0 kmh SW 12.0 mph19.3 kmh 29.18 in988.1 mb 0.00 in0.0 mm 0.00 in0.0 mm 0.17 in4.3 mm
04:40 AM 54.2°F12.3°C -44.9°F-42.7°C 1% 4.9 mph SW7.9 kmh SW 12.0 mph19.3 kmh 29.17 in987.8 mb 0.00 in0.0 mm 0.00 in0.0 mm 0.17 in4.3 mm
04:35 AM 54.1°F12.3°C -44.9°F-42.7°C 1% 5.4 mph SW8.7 kmh SW 14.0 mph22.5 kmh 29.17 in987.8 mb 0.00 in0.0 mm 0.00 in0.0 mm 0.17 in4.3 mm
04:30 AM 54.1°F12.3°C -44.9°F-42.7°C 1% 6.7 mph SW10.8 kmh SW 14.0 mph22.5 kmh 29.16 in987.5 mb 0.00 in0.0 mm 0.00 in0.0 mm 0.17 in4.3 mm
04:25 AM 54.2°F12.3°C -44.9°F-42.7°C 1% 7.5 mph WSW12.1 kmh WSW 16.0 mph25.7 kmh 29.16 in987.5 mb 0.00 in0.0 mm 0.00 in0.0 mm 0.17 in4.3 mm
04:20 AM 54.3°F12.4°C -44.8°F-42.7°C 1% 7.7 mph WSW12.4 kmh WSW 16.0 mph25.7 kmh 29.16 in987.5 mb 0.02 in0.5 mm 0.00 in0.0 mm 0.17 in4.3 mm
04:15 AM 54.5°F12.5°C -44.7°F-42.6°C 1% 8.2 mph WSW13.2 kmh WSW 15.0 mph24.1 kmh 29.16 in987.5 mb 0.05 in1.3 mm 0.00 in0.0 mm 0.17 in4.3 mm
04:10 AM 54.7°F12.6°C -44.6°F-42.6°C 1% 7.3 mph WSW11.7 kmh WSW 20.0 mph32.2 kmh 29.15 in987.1 mb 0.05 in1.3 mm 0.00 in0.0 mm 0.17 in4.3 mm
04:05 AM 54.9°F12.7°C -44.4°F-42.4°C 1% 4.7 mph WSW7.6 kmh WSW 20.0 mph32.2 kmh 29.15 in987.1 mb 0.05 in1.3 mm 0.00 in0.0 mm 0.17 in4.3 mm
04:00 AM 55.3°F12.9°C -44.2°F-42.3°C 1% 3.1 mph SW5.0 kmh SW 13.0 mph20.9 kmh 29.14 in986.8 mb 0.05 in1.3 mm 0.00 in0.0 mm 0.17 in4.3 mm
03:55 AM 55.4°F13.0°C -44.1°F-42.3°C 1% 2.9 mph SW4.7 kmh SW 10.0 mph16.1 kmh 29.14 in986.8 mb 0.05 in1.3 mm 0.00 in0.0 mm 0.17 in4.3 mm
03:50 AM 55.5°F13.1°C -44.1°F-42.3°C 1% 3.2 mph WSW5.1 kmh WSW 8.0 mph12.9 kmh 29.14 in986.8 mb 0.05 in1.3 mm 0.00 in0.0 mm 0.17 in4.3 mm
03:45 AM 55.5°F13.1°C -44.1°F-42.3°C 1% 3.5 mph WSW5.6 kmh WSW 7.0 mph11.3 kmh 29.13 in986.5 mb 0.05 in1.3 mm 0.00 in0.0 mm 0.17 in4.3 mm
03:40 AM 55.6°F13.1°C -44.0°F-42.2°C 1% 4.1 mph SW6.6 kmh SW 10.0 mph16.1 kmh 29.13 in986.5 mb 0.05 in1.3 mm 0.00 in0.0 mm 0.17 in4.3 mm
03:35 AM 55.7°F13.2°C -43.9°F-42.2°C 1% 4.7 mph SW7.6 kmh SW 11.0 mph17.7 kmh 29.12 in986.1 mb 0.05 in1.3 mm 0.00 in0.0 mm 0.17 in4.3 mm
03:30 AM 55.9°F13.3°C -43.8°F-42.1°C 1% 4.4 mph SW7.1 kmh SW 15.0 mph24.1 kmh 29.11 in985.8 mb 0.05 in1.3 mm 0.00 in0.0 mm 0.17 in4.3 mm
03:25 AM 56.2°F13.4°C -43.6°F-42.0°C 1% 4.6 mph WSW7.4 kmh WSW 15.0 mph24.1 kmh 29.12 in986.1 mb 0.06 in1.5 mm 0.48 in12.2 mm 0.17 in4.3 mm
03:20 AM 56.3°F13.5°C -43.6°F-42.0°C 1% 5.2 mph SW8.4 kmh SW 11.0 mph17.7 kmh 29.12 in986.1 mb 0.02 in0.5 mm 0.00 in0.0 mm 0.13 in3.3 mm
03:15 AM 56.3°F13.5°C -43.6°F-42.0°C 1% 5.3 mph SW8.5 kmh SW 13.0 mph20.9 kmh 29.12 in986.1 mb 0.02 in0.5 mm 0.00 in0.0 mm 0.12 in3.0 mm
03:10 AM 56.3°F13.5°C -43.6°F-42.0°C 1% 5.2 mph SW8.4 kmh SW 13.0 mph20.9 kmh 29.11 in985.8 mb 0.03 in0.8 mm 0.00 in0.0 mm 0.12 in3.0 mm
03:05 AM 56.3°F13.5°C -43.6°F-42.0°C 1% 5.5 mph SW8.9 kmh SW 14.0 mph22.5 kmh 29.11 in985.8 mb 0.04 in1.0 mm 0.00 in0.0 mm 0.12 in3.0 mm
03:00 AM 56.2°F13.4°C -43.6°F-42.0°C 1% 6.5 mph SW10.5 kmh SW 14.0 mph22.5 kmh 29.11 in985.8 mb 0.05 in1.3 mm 0.00 in0.0 mm 0.12 in3.0 mm
02:55 AM 56.3°F13.5°C -43.6°F-42.0°C 1% 7.0 mph SW11.3 kmh SW 17.0 mph27.4 kmh 29.11 in985.8 mb 0.06 in1.5 mm 0.00 in0.0 mm 0.12 in3.0 mm
02:50 AM 56.3°F13.5°C -43.6°F-42.0°C 1% 7.5 mph SW12.1 kmh SW 17.0 mph27.4 kmh 29.11 in985.8 mb 0.06 in1.5 mm 0.00 in0.0 mm 0.12 in3.0 mm
02:45 AM 56.3°F13.5°C -43.6°F-42.0°C 1% 7.6 mph SW12.2 kmh SW 16.0 mph25.7 kmh 29.11 in985.8 mb 0.06 in1.5 mm 0.00 in0.0 mm 0.12 in3.0 mm
02:40 AM 56.3°F13.5°C -43.6°F-42.0°C 1% 7.1 mph SW11.4 kmh SW 19.0 mph30.6 kmh 29.11 in985.8 mb 0.08 in2.0 mm 0.00 in0.0 mm 0.12 in3.0 mm
02:35 AM 56.3°F13.5°C -43.6°F-42.0°C 1% 7.0 mph SW11.3 kmh SW 19.0 mph30.6 kmh 29.11 in985.8 mb 0.09 in2.3 mm 0.00 in0.0 mm 0.12 in3.0 mm
02:30 AM 56.4°F13.6°C -43.5°F-41.9°C 1% 7.3 mph SSW11.7 kmh SSW 18.0 mph29.0 kmh 29.11 in985.8 mb 0.11 in2.8 mm 0.12 in3.0 mm 0.12 in3.0 mm
02:25 AM 56.4°F13.6°C -43.5°F-41.9°C 1% 7.9 mph S12.7 kmh S 18.0 mph29.0 kmh 29.11 in985.8 mb 0.10 in2.5 mm 0.00 in0.0 mm 0.11 in2.8 mm
02:20 AM 56.5°F13.6°C -43.5°F-41.9°C 1% 8.5 mph S13.7 kmh S 20.0 mph32.2 kmh 29.11 in985.8 mb 0.11 in2.8 mm 0.12 in3.0 mm 0.11 in2.8 mm
02:15 AM 56.5°F13.6°C -43.5°F-41.9°C 1% 8.8 mph S14.2 kmh S 20.0 mph32.2 kmh 29.11 in985.8 mb 0.10 in2.5 mm 0.12 in3.0 mm 0.10 in2.5 mm
02:10 AM 56.6°F13.7°C -43.4°F-41.9°C 1% 8.8 mph S14.2 kmh S 17.0 mph27.4 kmh 29.11 in985.8 mb 0.09 in2.3 mm 0.12 in3.0 mm 0.09 in2.3 mm
02:05 AM 56.6°F13.7°C -43.4°F-41.9°C 1% 8.6 mph S13.8 kmh S 21.0 mph33.8 kmh 29.12 in986.1 mb 0.08 in2.0 mm 0.12 in3.0 mm 0.08 in2.0 mm
02:00 AM 56.7°F13.7°C -43.3°F-41.8°C 1% 8.5 mph S13.7 kmh S 21.0 mph33.8 kmh 29.12 in986.1 mb 0.07 in1.8 mm 0.01 in0.3 mm 0.07 in1.8 mm
01:55 AM 56.7°F13.7°C -43.3°F-41.8°C 1% 9.2 mph S14.8 kmh S 17.0 mph27.4 kmh 29.12 in986.1 mb 0.06 in1.5 mm 0.00 in0.0 mm 0.06 in1.5 mm
01:50 AM 56.8°F13.8°C -43.3°F-41.8°C 1% 10.1 mph S16.3 kmh S 24.0 mph38.6 kmh 29.12 in986.1 mb 0.06 in1.5 mm 0.00 in0.0 mm 0.06 in1.5 mm
01:45 AM 56.9°F13.8°C -43.2°F-41.8°C 1% 11.1 mph S17.9 kmh S 24.0 mph38.6 kmh 29.12 in986.1 mb 0.06 in1.5 mm 0.24 in6.1 mm 0.06 in1.5 mm
01:40 AM 57.1°F13.9°C -43.1°F-41.7°C 1% 11.6 mph S18.7 kmh S 26.0 mph41.8 kmh 29.13 in986.5 mb 0.04 in1.0 mm 0.24 in6.1 mm 0.04 in1.0 mm
01:35 AM 57.5°F14.2°C -42.8°F-41.6°C 1% 10.6 mph S17.1 kmh S 26.0 mph41.8 kmh 29.12 in986.1 mb 0.02 in0.5 mm 0.12 in3.0 mm 0.02 in0.5 mm
01:30 AM 57.8°F14.3°C -42.7°F-41.5°C 1% 9.6 mph S15.4 kmh S 23.0 mph37.0 kmh 29.12 in986.1 mb 0.01 in0.3 mm 0.00 in0.0 mm 0.01 in0.3 mm
01:25 AM 58.1°F14.5°C -42.5°F-41.4°C 1% 9.2 mph S14.8 kmh S 25.0 mph40.2 kmh 29.12 in986.1 mb 0.01 in0.3 mm 0.12 in3.0 mm 0.01 in0.3 mm
01:20 AM 58.4°F14.7°C -42.3°F-41.3°C 1% 9.5 mph S15.3 kmh S 25.0 mph40.2 kmh 29.12 in986.1 mb 0.00 in0.0 mm 0.00 in0.0 mm 0.00 in0.0 mm
01:15 AM 58.6°F14.8°C -42.2°F-41.2°C 1% 10.5 mph S16.9 kmh S 21.0 mph33.8 kmh 29.12 in986.1 mb 0.00 in0.0 mm 0.00 in0.0 mm 0.00 in0.0 mm
01:10 AM 58.7°F14.8°C -42.1°F-41.2°C 1% 10.9 mph S17.5 kmh S 27.0 mph43.5 kmh 29.13 in986.5 mb 0.00 in0.0 mm 0.00 in0.0 mm 0.00 in0.0 mm
01:05 AM 58.7°F14.8°C -42.1°F-41.2°C 1% 11.0 mph S17.7 kmh S 27.0 mph43.5 kmh 29.13 in986.5 mb 0.00 in0.0 mm 0.00 in0.0 mm 0.00 in0.0 mm
01:00 AM 58.8°F14.9°C -42.0°F-41.1°C 1% 12.0 mph S19.3 kmh S 24.0 mph38.6 kmh 29.13 in986.5 mb 0.00 in0.0 mm 0.00 in0.0 mm 0.00 in0.0 mm
12:55 AM 58.9°F14.9°C -42.0°F-41.1°C 1% 12.7 mph S20.4 kmh S 34.0 mph54.7 kmh 29.13 in986.5 mb 0.00 in0.0 mm 0.00 in0.0 mm 0.00 in0.0 mm
12:50 AM 58.9°F14.9°C -42.0°F-41.1°C 1% 11.7 mph S18.8 kmh S 34.0 mph54.7 kmh 29.14 in986.8 mb 0.00 in0.0 mm 0.00 in0.0 mm 0.00 in0.0 mm
12:45 AM 58.9°F14.9°C -42.0°F-41.1°C 1% 10.9 mph S17.5 kmh S 25.0 mph40.2 kmh 29.14 in986.8 mb 0.00 in0.0 mm 0.00 in0.0 mm 0.00 in0.0 mm
12:40 AM 58.7°F14.8°C -42.1°F-41.2°C 1% 11.0 mph S17.7 kmh S 24.0 mph38.6 kmh 29.13 in986.5 mb 0.00 in0.0 mm 0.00 in0.0 mm 0.00 in0.0 mm
12:35 AM 58.6°F14.8°C -42.2°F-41.2°C 1% 10.8 mph S17.4 kmh S 24.0 mph38.6 kmh 29.14 in986.8 mb 0.00 in0.0 mm 0.00 in0.0 mm 0.00 in0.0 mm
12:30 AM 58.6°F14.8°C -42.2°F-41.2°C 1% 10.8 mph S17.4 kmh S 23.0 mph37.0 kmh 29.14 in986.8 mb 0.00 in0.0 mm 0.00 in0.0 mm 0.00 in0.0 mm
12:25 AM 58.5°F14.7°C -42.2°F-41.2°C 1% 11.3 mph S18.2 kmh S 26.0 mph41.8 kmh 29.14 in986.8 mb 0.00 in0.0 mm 0.00 in0.0 mm 0.00 in0.0 mm
12:20 AM 58.5°F14.7°C -42.2°F-41.2°C 1% 11.8 mph S19.0 kmh S 26.0 mph41.8 kmh 29.15 in987.1 mb 0.00 in0.0 mm 0.00 in0.0 mm 0.00 in0.0 mm
12:15 AM 58.4°F14.7°C -42.3°F-41.3°C 1% 12.2 mph S19.6 kmh S 24.0 mph38.6 kmh 29.14 in986.8 mb 0.00 in0.0 mm 0.00 in0.0 mm 0.00 in0.0 mm
12:10 AM 58.2°F14.6°C -42.4°F-41.3°C 1% 12.7 mph S20.4 kmh S 27.0 mph43.5 kmh 29.14 in986.8 mb 0.00 in0.0 mm 0.00 in0.0 mm 0.00 in0.0 mm
12:05 AM 57.9°F14.4°C -42.6°F-41.4°C 1% 13.0 mph S20.9 kmh S 29.0 mph46.7 kmh 29.15 in987.1 mb 0.00 in0.0 mm 0.00 in0.0 mm 0.00 in0.0 mm
12:00 AM 57.9°F14.4°C -42.6°F-41.4°C 1% 12.9 mph S20.8 kmh S 29.0 mph46.7 kmh 29.16 in987.5 mb 0.00 in0.0 mm 0.00 in0.0 mm 0.00 in0.0 mm